Silver Peak Trail, Santa Catalina Island Weather observations

Data are for 10 minute period ending at time listed.
 Day   Time   Solar   Ave.   Ave.  Ave.  Vector    Max.   Stn.    Total
  of    of     Rad.   Air    Rel.  Wind   Wind     Wind   Baro.  Precip.
Year   Day            Temp.  Hum.  Speed  Dir.     Gust   Pres.         
2014   (PST)   W/m2    F      %     mph   deg.      mph    mb.     in.  
------------------------------------------------------------------------
 331   11:00  604.0    82   17.7     5    196.6     6.6    999.0   0.00  
 331   11:10  612.0    81   18.6     5    190.5     6.0    999.0   0.00  
 331   11:20  617.0    81   17.8     4    189.8     6.0    999.0   0.00  
 331   11:30  620.0    82   16.7     5    189.5     7.2    999.0   0.00  
 331   11:40  622.0    81   16.7     6    194.9     7.8    999.0   0.00  
 331   11:50  621.0    81   16.6     5    193.1     7.2    999.0   0.00  
 331   12:00  610.0    82   16.4     5    192.1     6.6    999.0   0.00  
 331   12:10  609.0    81   17.1     6    190.7     8.4    999.0   0.00  
 331   12:20  604.0    82   17.2     5    192.7     7.2    999.0   0.00  
 331   12:30  607.0    84   16.1     6    197.5     9.6    999.0   0.00  
 331   12:40  599.0    85   15.6     6    202.2     8.4    999.0   0.00  
 331   12:50  589.0    85   15.4     6    211.3     8.4    999.0   0.00  
 331   13:00  578.0    84   15.5     6    213.5     8.4    999.0   0.00  
 331   13:10  565.0    84   15.9     6    208.4     8.4    999.0   0.00  
 331   13:20  552.0    84   16.0     4    197.8     9.0    999.0   0.00  
 331   13:30  536.0    84   15.5     4    230.5     7.8    999.0   0.00  
 331   13:40  518.0    84   15.7     5    202.4     7.8    999.0   0.00  
 331   13:50  499.0    83   15.7     5    203.0     9.0    999.0   0.00  
 331   14:00  479.0    84   15.1     5    207.6     7.8    999.0   0.00  
 331   14:10  457.0    85   14.9     5    194.3     8.4    999.0   0.00  
 331   14:20  434.0    84   15.2     5    210.0     8.4    999.0   0.00  
 331   14:30  409.0    84   15.2     5    208.3     9.6    999.0   0.00  
 331   14:40  384.0    84   15.0     4    208.6     6.6    999.0   0.00  
 331   14:50  357.0    84   15.1     4    231.2     6.0    999.0   0.00  
 331   15:00  330.0    84   15.4     3    220.9     5.4    999.0   0.00  
 331   15:10  302.0    83   15.7     3    250.3     6.0    999.0   0.00  
 331   15:20  273.0    83   15.8     4    256.9     8.4    999.0   0.00  
 331   15:30  244.0    83   15.4     3    263.6     5.4    999.0   0.00  
 331   15:40  215.0    82   15.7     3    270.2     6.6    999.0   0.00  
 331   15:50  186.0    82   15.8     3    278.3     6.6    999.0   0.00  
 331   16:00  159.0    80   15.6     3    296.6     5.4    999.0   0.00  
 331   16:10  131.0    80   15.4     3    308.8     6.0    999.0   0.00  
 331   16:20  102.0    80   14.9     3    300.8     6.0    999.0   0.00  
 331   16:30   73.0    79   15.0     4    311.4     6.6    999.0   0.00  
 331   16:40   37.0    78   15.3     4    305.7     6.6    999.0   0.00  
 331   16:50   24.0    77   15.5     6    315.7     7.8    999.0   0.00  
 331   17:00    5.0    76   15.7     8    325.4     9.0    999.0   0.00  
 331   17:10    1.0    76   15.2     8    325.5     9.0    999.0   0.00  
 331   17:20    0.0    76   15.5     8    321.2     9.6    999.0   0.00  
 331   17:30    0.0    77   15.6     5    323.1     7.8    999.0   0.00  
 331   17:40    0.0    77   15.4     4    314.3     5.4    999.0   0.00  
 331   17:50    0.0    77   15.6     5    304.8     6.6    999.0   0.00  
 331   18:00    0.0    77   15.6     5    295.5     6.6    999.0   0.00  
 331   18:10    0.0    77   15.6     5    301.7     6.0    999.0   0.00  
 331   18:20    0.0    77   15.7     5    298.3     6.6    999.0   0.00  
 331   18:30    0.0    77   15.6     5    296.1     6.6    999.0   0.00  
 331   18:40    0.0    77   15.5     4    296.3     5.4    999.0   0.00  
 331   18:50    0.0    77   15.4     4    301.0     5.4    999.0   0.00  
 331   19:00    0.0    77   15.3     4    314.9     6.0    999.0   0.00  
 331   19:10    0.0    77   15.3     5    300.6     6.6    999.0   0.00  
 331   19:20    0.0    77   15.2     5    308.5     6.6    999.0   0.00  
 331   19:30    0.0    77   15.3     5    299.7     7.8    999.0   0.00  
 331   19:40    0.0    77   15.2     5    306.8     7.2    999.0   0.00  
 331   19:50    0.0    76   15.8     9    312.4    12.5    999.0   0.00  
 331   20:00    0.0    74   16.3    11    306.1    13.7    999.0   0.00  
 331   20:10    0.0    74   16.3    12    307.8    14.3    999.0   0.00  
 331   20:20    0.0    74   16.2    11    305.9    14.3    999.0   0.00  
 331   20:30    0.0    75   16.0    12    308.4    14.3    999.0   0.00  
 331   20:40    0.0    75   15.9    12    310.7    14.9    999.0   0.00  
 331   20:50    0.0    75   15.8    11    312.8    12.5    999.0   0.00  
 331   21:00    0.0    75   15.9    11    318.2    13.1    999.0   0.00  
 331   21:10    0.0    74   16.0    10    325.3    13.1    999.0   0.00  
 331   21:20    0.0    75   16.2    10    326.8    12.5    999.0   0.00  
 331   21:30    0.0    75   16.9    10    330.7    11.3    999.0   0.00  
 331   21:40    0.0    75   17.2     9    331.5    10.8    999.0   0.00  
 331   21:50    0.0    75   17.3     9    331.7    10.8    999.0   0.00  
 331   22:00    0.0    75   17.4     9    332.5    10.2    999.0   0.00  
 331   22:10    0.0    75   17.4     8    331.3     9.6    999.0   0.00  
 331   22:20    0.0    75   17.4     8    327.9     9.0    999.0   0.00  
 331   22:30    0.0    75   17.5     8    326.4     9.6    999.0   0.00  
 331   22:40    0.0    75   17.5     8    329.0    10.2    999.0   0.00  
 331   22:50    0.0    74   17.6     7    334.1     9.0    999.0   0.00  
 331   23:00    0.0    74   17.6     8    334.8     9.6    999.0   0.00  
 331   23:10    0.0    74   17.6     9    329.4    11.3    999.0   0.00  
 331   23:20    0.0    74   17.6    10    328.0    11.3    999.0   0.00  
 331   23:30    0.0    74   17.7    10    326.9    11.3    999.0   0.00  
 331   23:40    0.0    74   17.7    10    323.3    11.9    999.0   0.00  
 331   23:50    0.0    74   17.6    11    320.5    12.5    999.0   0.00  
 332    0:00    0.0    74   17.5    10    319.0    11.9    999.0   0.00  
 332    0:10    0.0    74   17.5    10    320.4    11.3    999.0   0.00  
 332    0:20    0.0    74   17.6     9    325.6    10.8    999.0   0.00  
 332    0:30    0.0    74   17.5     9    321.7    10.2    999.0   0.00  
 332    0:40    0.0    74   17.5     9    327.4    10.2    999.0   0.00  
 332    0:50    0.0    74   17.5     9    328.3    10.2    999.0   0.00  
 332    1:00    0.0    74   17.6     9    325.4    10.2    999.0   0.00  
 332    1:10    0.0    74   17.6     9    326.3    10.2    999.0   0.00  
 332    1:20    0.0    74   17.6     9    326.3    10.2    999.0   0.00  
 332    1:30    0.0    74   17.6     9    317.8    10.2    999.0   0.00  
 332    1:40    0.0    74   17.6     8    327.8     9.6    999.0   0.00  
 332    1:50    0.0    73   17.6     8    333.5     9.0    999.0   0.00  
 332    2:00    0.0    73   17.9     8    331.7     9.0    999.0   0.00  
 332    2:10    0.0    73   17.8     9    324.8     9.6    999.0   0.00  
 332    2:20    0.0    74   17.8    10    314.8    10.2    999.0   0.00  
 332    2:30    0.0    74   17.8     9    312.3    10.2    999.0   0.00  
 332    2:40    0.0    74   18.3     9    311.3    10.2    999.0   0.00  
 332    2:50    0.0    74   18.4     9    314.3    10.8    999.0   0.00  
 332    3:00    0.0    73   18.0    10    313.9    10.8    999.0   0.00  
 332    3:10    0.0    73   18.1    10    314.1    11.3    999.0   0.00  
 332    3:20    0.0    73   18.0    10    314.1    10.8    999.0   0.00  
 332    3:30    0.0    73   18.2     9    314.6    10.8    999.0   0.00  
 332    3:40    0.0    73   18.5     9    315.0    10.2    999.0   0.00  
 332    3:50    0.0    72   18.6     9    315.4    10.2    999.0   0.00  
 332    4:00    0.0    72   18.5     8    308.9     9.6    999.0   0.00  
 332    4:10    0.0    72   22.1     7    282.9     9.6    999.0   0.00  
 332    4:20    0.0    73   23.3     8    278.7    10.2    999.0   0.00  
 332    4:30    0.0    72   24.5     8    279.3     9.6    999.0   0.00  
 332    4:40    0.0    71   23.0     6    274.8     8.4    999.0   0.00  
 332    4:50    0.0    71   23.1     5    272.6     6.6    999.0   0.00  
 332    5:00    0.0    72   23.3     7    257.2     9.0    999.0   0.00  
 332    5:10    0.0    72   22.6     7    261.7     9.0    999.0   0.00  
 332    5:20    0.0    71   23.0     6    260.8     7.8    999.0   0.00  
 332    5:30    0.0    72   22.8     7    246.4     9.0    999.0   0.00  
 332    5:40    0.0    73   21.9     8    245.4     9.6    999.0   0.00  
 332    5:50    0.0    72   22.1     8    236.9     9.6    999.0   0.00  
 332    6:00    0.0    72   21.9     9    231.9    11.3    999.0   0.00  
 332    6:10    0.0    72   20.7     9    226.3    10.8    999.0   0.00  
 332    6:20    0.0    72   20.4     9    228.3     9.6    999.0   0.00  
 332    6:30    1.0    72   19.8     8    217.2     9.6    999.0   0.00  
 332    6:40    4.0    72   19.7     7    213.9     8.4    999.0   0.00  
 332    6:50   21.0    72   20.1     8    216.9     9.0    999.0   0.00  
 332    7:00   47.0    72   19.9     8    209.5     9.0    999.0   0.00  
 332    7:10   72.0    72   19.5     7    209.6     9.0    999.0   0.00  
 332    7:20   99.0    72   19.6     7    208.7     8.4    999.0   0.00  
 332    7:30  127.0    73   19.6     7    208.8     8.4    999.0   0.00  
 332    7:40  156.0    73   20.1     8    208.5     9.0    999.0   0.00  
 332    7:50  185.0    73   19.4     8    208.7     9.6    999.0   0.00  
 332    8:00  215.0    73   19.5     9    210.5    10.2    999.0   0.00  
 332    8:10  244.0    72   19.0    10    211.0    11.3    999.0   0.00  
 332    8:20  274.0    72   19.8    11    209.8    12.5    999.0   0.00  
 332    8:30  302.0    72   20.3    11    209.7    13.1    999.0   0.00  
 332    8:40  331.0    72   20.5    12    209.1    13.1    999.0   0.00  
 332    8:50  359.0    72   20.0    11    207.7    13.1    999.0   0.00  
 332    9:00  385.0    73   20.2    12    208.1    13.1    999.0   0.00  
 332    9:10  411.0    74   20.6    11    209.4    13.1    999.0   0.00  
 332    9:20  435.0    74   20.4    10    208.6    12.5    999.0   0.00  
 332    9:30  458.0    73   20.7    11    210.3    12.5    999.0   0.00  
 332    9:40  479.0    73   21.2    11    209.1    13.7    999.0   0.00  
 332    9:50  500.0    74   21.3    10    210.2    12.5    999.0   0.00  
 332   10:00  518.0    74   22.0    10    209.8    12.5    999.0   0.00  
 332   10:10  536.0    74   22.9    10    209.2    12.5    999.0   0.00  
 332   10:20  551.0    74   23.9    10    209.1    11.9    999.0   0.00  
 332   10:30  565.0    74   24.8    10    209.5    12.5    999.0   0.00  
 332   10:40  578.0    73   24.9     9    212.4    10.8    999.0   0.00  
 332   10:50  590.0    74   22.3    10    210.9    11.3    999.0   0.00  

Return to Silver Peak Trail graphs page.


Western Regional Climate Center,wrcc@dri.edu